Fugaku Maru — JH3428 — position and weather

sailwx.info

Track history (hours):
 
Tides and Currents Weather Stations Pressure Air Temp Water Temp Dewpoint Dewpoint Depression Visibility Wind Speed Wind Dir Waves Ship Positions

Fugaku Maru

Last reported at 2016-Jun-27 00:15 UTC. Time now 2016-Jun-27 00:38 UTC.
Position N 35°49' E 140°57'.

Length 165 m; draft 7.2 m.

Type: Cargo ship. MMSI: 431200176.

Date/timePositionNaut miles runAvg speedWind from/ knotsBaromVisibWave heightAir tempDewpointWater temp
2016-Jun-27 00:15N 35°49' E 140°57'1420.3
2016-Jun-26 23:33N 35°36' E 140°54'2520.7
2016-Jun-26 22:20N 35°15' E 140°36'1620.6
2016-Jun-26 21:33N 35°02' E 140°24'2020.4
2016-Jun-26 20:33N 34°50' E 140°04'2120.4
2016-Jun-26 19:32N 34°41' E 139°41'70 3.9
2016-Jun-26 01:25N 34°31' E 138°17'1719.5
2016-Jun-26 00:33N 34°31' E 138°37'5418.2
2016-Jun-25 21:34N 34°44' E 139°41'1818.3
2016-Jun-25 20:33N 34°53' E 140°01'1818.0
2016-Jun-25 19:33N 35°02' E 140°20'1917.6
2016-Jun-25 18:29N 35°14' E 140°37'1718.7
2016-Jun-25 17:33N 35°29' E 140°49'1918.8
2016-Jun-25 16:33N 35°45' E 141°01'  
2016-Jun-22 23:12N 35°54' E 141°03'1520.3
2016-Jun-22 22:29N 35°40' E 140°57'1920.3
2016-Jun-22 21:33N 35°24' E 140°44'2121.0
2016-Jun-22 20:32N 35°08' E 140°28'2020.3
2016-Jun-22 19:33N 34°55' E 140°09'2121.3
2016-Jun-22 18:33N 34°45' E 139°46'62 3.2
2016-Jun-21 23:18N 34°30' E 138°33'4319.6
2016-Jun-21 21:06N 34°37' E 139°24'1120.3
2016-Jun-21 20:33N 34°40' E 139°37'2019.9
2016-Jun-21 19:33N 34°50' E 139°58'2020.0
2016-Jun-21 18:34N 34°60' E 140°19'2019.2
2016-Jun-21 17:32N 35°13' E 140°37'1919.8
2016-Jun-21 16:34N 35°30' E 140°49'2320.7
2016-Jun-21 15:28N 35°50' E 141°02'2021.3
2016-Jun-21 14:31N 36°10' E 141°07'2721.0
2016-Jun-21 13:14N 36°36' E 141°13'  
2016-Jun-19 00:17N 36°09' E 141°00'1520.4
2016-Jun-18 23:33N 35°54' E 140°58'2020.2
2016-Jun-18 22:33N 35°35' E 140°51'2121.2
2016-Jun-18 21:33N 35°17' E 140°38'2020.7
2016-Jun-18 20:33N 35°01' E 140°22'2020.1
2016-Jun-18 19:33N 34°50' E 140°01'2019.9
2016-Jun-18 18:33N 34°41' E 139°39'2619.9
2016-Jun-18 17:16N 34°32' E 139°10'3920.3
2016-Jun-18 15:21N 34°28' E 138°23'7 0.4
2016-Jun-17 23:33N 34°29' E 138°31'2819.5
2016-Jun-17 22:07N 34°32' E 139°05'1520.0
2016-Jun-17 21:23N 34°36' E 139°22'1720.9
2016-Jun-17 20:33N 34°43' E 139°41'2120.8
2016-Jun-17 19:33N 34°53' E 140°04'2020.4
2016-Jun-17 18:33N 35°03' E 140°25'2019.5
2016-Jun-17 17:33N 35°18' E 140°41'2020.1
2016-Jun-17 16:32N 35°35' E 140°54'2020.1
2016-Jun-17 15:33N 35°53' E 141°04'2120.7
2016-Jun-17 14:34N 36°14' E 141°08'2020.0
2016-Jun-17 13:33N 36°33' E 141°13'2119.2
2016-Jun-17 12:29N 36°54' E 141°17'  
Track history (hours):
 
Tides and Currents Weather Stations Pressure Air Temp Water Temp Dewpoint Dewpoint Depression Visibility Wind Speed Wind Dir Waves Ship Positions

Fugaku Maru

Last reported at 2016-Jun-27 00:15 UTC. Time now 2016-Jun-27 00:38 UTC.
Position N 35°49' E 140°57'.

Length 165 m; draft 7.2 m.

Type: Cargo ship. MMSI: 431200176.

Date/timePositionNaut miles runAvg speedWind from/ knotsBaromVisibWave heightAir tempDewpointWater temp
2016-Jun-27 00:15N 35°49' E 140°57'1420.3
2016-Jun-26 23:33N 35°36' E 140°54'2520.7
2016-Jun-26 22:20N 35°15' E 140°36'1620.6
2016-Jun-26 21:33N 35°02' E 140°24'2020.4
2016-Jun-26 20:33N 34°50' E 140°04'2120.4
2016-Jun-26 19:32N 34°41' E 139°41'70 3.9
2016-Jun-26 01:25N 34°31' E 138°17'1719.5
2016-Jun-26 00:33N 34°31' E 138°37'5418.2
2016-Jun-25 21:34N 34°44' E 139°41'1818.3
2016-Jun-25 20:33N 34°53' E 140°01'1818.0
2016-Jun-25 19:33N 35°02' E 140°20'1917.6
2016-Jun-25 18:29N 35°14' E 140°37'1718.7
2016-Jun-25 17:33N 35°29' E 140°49'1918.8
2016-Jun-25 16:33N 35°45' E 141°01'  
2016-Jun-22 23:12N 35°54' E 141°03'1520.3
2016-Jun-22 22:29N 35°40' E 140°57'1920.3
2016-Jun-22 21:33N 35°24' E 140°44'2121.0
2016-Jun-22 20:32N 35°08' E 140°28'2020.3
2016-Jun-22 19:33N 34°55' E 140°09'2121.3
2016-Jun-22 18:33N 34°45' E 139°46'62 3.2
2016-Jun-21 23:18N 34°30' E 138°33'4319.6
2016-Jun-21 21:06N 34°37' E 139°24'1120.3
2016-Jun-21 20:33N 34°40' E 139°37'2019.9
2016-Jun-21 19:33N 34°50' E 139°58'2020.0
2016-Jun-21 18:34N 34°60' E 140°19'2019.2
2016-Jun-21 17:32N 35°13' E 140°37'1919.8
2016-Jun-21 16:34N 35°30' E 140°49'2320.7
2016-Jun-21 15:28N 35°50' E 141°02'2021.3
2016-Jun-21 14:31N 36°10' E 141°07'2721.0
2016-Jun-21 13:14N 36°36' E 141°13'  
2016-Jun-19 00:17N 36°09' E 141°00'1520.4
2016-Jun-18 23:33N 35°54' E 140°58'2020.2
2016-Jun-18 22:33N 35°35' E 140°51'2121.2
2016-Jun-18 21:33N 35°17' E 140°38'2020.7
2016-Jun-18 20:33N 35°01' E 140°22'2020.1
2016-Jun-18 19:33N 34°50' E 140°01'2019.9
2016-Jun-18 18:33N 34°41' E 139°39'2619.9
2016-Jun-18 17:16N 34°32' E 139°10'3920.3
2016-Jun-18 15:21N 34°28' E 138°23'7 0.4
2016-Jun-17 23:33N 34°29' E 138°31'2819.5
2016-Jun-17 22:07N 34°32' E 139°05'1520.0
2016-Jun-17 21:23N 34°36' E 139°22'1720.9
2016-Jun-17 20:33N 34°43' E 139°41'2120.8
2016-Jun-17 19:33N 34°53' E 140°04'2020.4
2016-Jun-17 18:33N 35°03' E 140°25'2019.5
2016-Jun-17 17:33N 35°18' E 140°41'2020.1
2016-Jun-17 16:32N 35°35' E 140°54'2020.1
2016-Jun-17 15:33N 35°53' E 141°04'2120.7
2016-Jun-17 14:34N 36°14' E 141°08'2020.0
2016-Jun-17 13:33N 36°33' E 141°13'2119.2
2016-Jun-17 12:29N 36°54' E 141°17'  

Dump ship's entire track history